Time;durP1;ratioP1;P1;durP2;ratioP2;P2;SDS_P1;SDS_P2;PMS_P1;PMS_P2;Temp;Humidity;BMP_temperature;BMP_pressure;BME280_temperature;BME280_humidity;BME280_pressure;Samples;Min_cycle;Max_cycle;Signal;HPM_P1;HPM_P2
2022/03/19 00:00:04;;;;;;;16.43;6.57;;;;;;;5.99;30.69;101702.88;4987051;28;20145;-75
2022/03/19 00:02:32;;;;;;;17.40;6.60;;;;;;;5.97;30.74;101725.84;4972254;28;20050;-76
2022/03/19 00:04:58;;;;;;;22.00;5.63;;;;;;;5.94;30.99;101728.63;4954801;28;20062;-74
2022/03/19 00:07:23;;;;;;;20.57;6.47;;;;;;;5.94;31.18;101723.34;4954762;28;20479;-76
2022/03/19 00:09:49;;;;;;;13.03;5.87;;;;;;;5.92;31.11;101722.56;4970857;28;20574;-77
2022/03/19 00:12:15;;;;;;;16.77;6.20;;;;;;;5.92;31.24;101727.84;4970995;28;20089;-73
2022/03/19 00:14:41;;;;;;;10.07;5.90;;;;;;;5.98;31.49;101721.44;4972155;28;20063;-75
2022/03/19 00:17:10;;;;;;;13.23;6.93;;;;;;;5.91;31.49;101707.69;4970528;28;20050;-73
2022/03/19 00:19:38;;;;;;;17.80;7.43;;;;;;;5.90;31.46;101721.81;4987192;28;20582;-73
2022/03/19 00:22:06;;;;;;;17.50;5.93;;;;;;;5.92;31.38;101700.66;4954467;28;20045;-74
2022/03/19 00:24:32;;;;;;;15.83;6.23;;;;;;;5.93;31.44;101723.44;4986655;28;20134;-72
2022/03/19 00:26:57;;;;;;;25.63;6.60;;;;;;;5.88;31.37;101715.75;4985909;28;20129;-73
2022/03/19 00:29:23;;;;;;;16.67;6.53;;;;;;;5.78;31.40;101709.19;4970333;28;20546;-73
2022/03/19 00:31:49;;;;;;;11.67;6.00;;;;;;;5.77;31.52;101709.28;4971633;28;20047;-71
2022/03/19 00:34:15;;;;;;;16.23;5.73;;;;;;;5.79;31.66;101715.34;4954484;28;20054;-72
2022/03/19 00:36:40;;;;;;;14.13;5.87;;;;;;;5.76;31.85;101713.72;4937084;28;20062;-72
2022/03/19 00:39:06;;;;;;;15.50;5.43;;;;;;;5.72;31.74;101709.50;4984373;28;20042;-75
2022/03/19 00:41:32;;;;;;;13.70;5.43;;;;;;;5.74;31.74;101712.94;4968153;28;20043;-72
2022/03/19 00:43:57;;;;;;;13.13;5.90;;;;;;;5.75;31.57;101709.34;4967860;28;20051;-72
2022/03/19 00:46:23;;;;;;;13.20;5.93;;;;;;;5.78;31.51;101714.47;4984286;28;20050;-71
2022/03/19 00:48:49;;;;;;;13.37;5.50;;;;;;;5.66;31.59;101694.00;4984221;28;20129;-72
2022/03/19 00:51:15;;;;;;;12.87;5.63;;;;;;;5.81;31.63;101713.47;4968448;28;20110;-73
2022/03/19 00:53:41;;;;;;;16.00;6.10;;;;;;;5.78;31.66;101705.72;4968939;28;20054;-73
2022/03/19 00:56:06;;;;;;;13.47;5.73;;;;;;;5.80;31.64;101714.38;4970137;28;20042;-74
2022/03/19 00:58:32;;;;;;;15.70;5.63;;;;;;;5.77;31.89;101720.69;4970173;28;20597;-73
2022/03/19 01:00:58;;;;;;;14.23;6.00;;;;;;;5.75;31.89;101714.63;4986444;28;20047;-73
2022/03/19 01:03:24;;;;;;;15.10;5.73;;;;;;;5.77;31.53;101718.03;4953948;28;20069;-73
2022/03/19 01:05:50;;;;;;;17.77;5.80;;;;;;;5.59;31.72;101689.97;4954698;28;20250;-73
2022/03/19 01:08:15;;;;;;;17.07;5.73;;;;;;;5.63;31.69;101703.88;4986845;28;20042;-73
2022/03/19 01:10:41;;;;;;;9.70;5.23;;;;;;;5.77;31.83;101723.31;4986307;28;20074;-72
2022/03/19 01:13:08;;;;;;;17.10;5.67;;;;;;;5.78;31.85;101730.28;4970074;28;20525;-73
2022/03/19 01:15:34;;;;;;;10.23;5.37;;;;;;;5.77;31.83;101718.03;4971409;28;20054;-73
2022/03/19 01:18:02;;;;;;;17.67;5.50;;;;;;;5.74;31.69;101719.97;4970162;28;20043;-73
2022/03/19 01:20:29;;;;;;;11.53;5.43;;;;;;;5.75;31.63;101716.44;4986160;28;20046;-74
2022/03/19 01:22:55;;;;;;;14.13;5.47;;;;;;;5.78;31.88;101718.91;4986236;28;20046;-72
2022/03/19 01:25:21;;;;;;;10.20;5.33;;;;;;;5.74;31.88;101722.63;4970321;28;20054;-72
2022/03/19 01:27:48;;;;;;;11.33;4.90;;;;;;;5.84;31.96;101724.78;4970413;28;20097;-73
2022/03/19 01:30:19;;;;;;;13.03;5.77;;;;;;;5.80;31.92;101717.03;4986000;28;20043;-73
2022/03/19 01:32:46;;;;;;;11.23;5.32;;;;;;;5.76;31.99;101724.25;4986373;28;20046;-74
2022/03/19 01:35:12;;;;;;;14.10;5.80;;;;;;;5.71;32.13;101722.78;4970163;28;20051;-75
2022/03/19 01:37:39;;;;;;;10.53;5.37;;;;;;;5.72;32.05;101729.75;4969978;28;20120;-75
2022/03/19 01:40:06;;;;;;;16.37;5.60;;;;;;;5.67;32.02;101724.72;4989792;28;20499;-75
2022/03/19 01:42:34;;;;;;;10.20;4.60;;;;;;;5.69;31.92;101724.66;4989714;28;20049;-75
2022/03/19 01:45:01;;;;;;;12.33;4.97;;;;;;;5.57;32.18;101730.50;4973572;28;20070;-74
2022/03/19 01:47:30;;;;;;;10.47;4.97;;;;;;;5.65;32.27;101730.97;4973481;28;20043;-74
2022/03/19 01:49:56;;;;;;;11.90;5.20;;;;;;;5.42;32.56;101711.03;4973387;28;20045;-74
2022/03/19 01:52:22;;;;;;;10.90;5.30;;;;;;;5.44;32.35;101734.69;4989614;28;20130;-74
2022/03/19 01:54:49;;;;;;;13.07;4.60;;;;;;;5.45;32.35;101726.69;4974010;28;20046;-73
2022/03/19 01:57:18;;;;;;;9.30;5.07;;;;;;;5.59;32.51;101745.34;4989628;28;20517;-73
2022/03/19 01:59:44;;;;;;;12.07;5.40;;;;;;;5.46;32.60;101738.94;4973095;28;20041;-74
2022/03/19 02:02:13;;;;;;;16.57;5.30;;;;;;;5.55;32.44;101742.94;4972999;28;20046;-73
2022/03/19 02:04:41;;;;;;;10.03;5.00;;;;;;;5.53;32.50;101750.91;4973247;28;20411;-73
2022/03/19 02:07:12;;;;;;;11.97;5.33;;;;;;;5.60;32.54;101751.44;4989181;28;20502;-74
2022/03/19 02:09:40;;;;;;;14.17;5.97;;;;;;;5.46;32.38;101751.28;4941165;28;20126;-73
2022/03/19 02:12:06;;;;;;;16.10;5.17;;;;;;;5.30;32.60;101732.72;4972873;28;20054;-72
2022/03/19 02:14:37;;;;;;;9.07;4.93;;;;;;;5.53;32.52;101748.28;4988974;28;20039;-73
2022/03/19 02:17:04;;;;;;;14.88;4.93;;;;;;;5.43;32.74;101760.16;4988997;28;20049;-74
2022/03/19 02:19:30;;;;;;;13.63;5.30;;;;;;;5.33;32.92;101753.66;4988959;28;20459;-75
2022/03/19 02:21:56;;;;;;;13.23;5.77;;;;;;;5.34;32.77;101755.34;4989024;28;20046;-71
2022/03/19 02:27:06;;;;;;;12.73;6.30;;;;;;;5.20;32.78;101732.31;4972859;28;20061;-73
2022/03/19 02:29:32;;;;;;;14.07;5.50;;;;;;;5.31;32.81;101750.22;4972438;28;20470;-75
2022/03/19 02:32:00;;;;;;;11.40;5.20;;;;;;;5.37;32.94;101754.34;4988584;28;20046;-75
2022/03/19 02:34:26;;;;;;;13.43;5.67;;;;;;;5.28;32.78;101742.47;4956366;28;20495;-75
2022/03/19 02:36:52;;;;;;;13.63;5.47;;;;;;;5.29;32.83;101753.88;4988670;28;20113;-72
2022/03/19 02:39:30;;;;;;;16.30;5.63;;;;;;;5.45;32.90;101758.31;4973582;28;20082;-73
2022/03/19 02:41:59;;;;;;;16.10;6.20;;;;;;;5.36;33.15;101756.13;4988603;28;20106;-72
2022/03/19 02:44:25;;;;;;;13.83;6.10;;;;;;;5.09;32.88;101734.59;4973346;28;20097;-71
2022/03/19 02:46:53;;;;;;;17.57;6.03;;;;;;;5.34;33.14;101754.47;4988724;28;20047;-72
2022/03/19 02:49:19;;;;;;;17.20;6.10;;;;;;;5.12;33.22;101730.94;4971620;28;20039;-73
2022/03/19 02:51:48;;;;;;;17.30;5.57;;;;;;;5.29;33.23;101751.25;4973223;28;20066;-72
2022/03/19 02:54:15;;;;;;;10.70;5.53;;;;;;;5.32;33.13;101748.47;4972226;28;20050;-72
2022/03/19 02:56:42;;;;;;;11.17;5.67;;;;;;;5.38;33.02;101762.19;4972035;28;20129;-72
2022/03/19 02:59:13;;;;;;;19.03;5.80;;;;;;;5.34;32.92;101744.81;4988032;28;20042;-73
2022/03/19 03:01:40;;;;;;;13.98;5.80;;;;;;;5.38;32.89;101759.56;4988100;28;20043;-72
2022/03/19 03:04:06;;;;;;;12.80;5.60;;;;;;;5.19;33.28;101756.09;4987994;28;20053;-74
2022/03/19 03:06:37;;;;;;;17.27;5.70;;;;;;;5.34;33.07;101757.97;4987807;28;20050;-72
2022/03/19 03:09:04;;;;;;;11.70;5.63;;;;;;;5.21;33.09;101760.34;4988074;28;20134;-72
2022/03/19 03:11:31;;;;;;;15.50;5.40;;;;;;;5.20;33.06;101760.41;4972020;28;20038;-72
2022/03/19 03:13:56;;;;;;;16.90;6.03;;;;;;;5.15;33.20;101759.81;4988471;28;20145;-72
2022/03/19 03:16:22;;;;;;;12.83;6.03;;;;;;;5.17;33.05;101763.19;4973348;28;20558;-74
2022/03/19 03:18:48;;;;;;;13.27;5.53;;;;;;;5.15;32.99;101754.53;4939744;28;20053;-73
2022/03/19 03:21:14;;;;;;;14.80;5.70;;;;;;;5.12;33.15;101752.00;4971850;28;20047;-73
2022/03/19 03:23:40;;;;;;;11.07;5.60;;;;;;;5.13;33.06;101754.59;4955753;28;20125;-73
2022/03/19 03:26:06;;;;;;;13.17;5.13;;;;;;;5.16;33.13;101750.97;4987818;28;20142;-72
2022/03/19 03:28:31;;;;;;;17.13;5.47;;;;;;;5.12;33.10;101752.88;4987765;28;20042;-73
2022/03/19 03:30:58;;;;;;;11.33;5.27;;;;;;;5.15;33.05;101755.38;4987725;28;20138;-71
2022/03/19 03:33:23;;;;;;;14.30;5.67;;;;;;;5.08;33.23;101750.47;4955774;28;20126;-72
2022/03/19 03:35:49;;;;;;;12.93;6.70;;;;;;;5.00;33.16;101734.16;4971296;28;20046;-72
2022/03/19 03:38:15;;;;;;;14.03;5.53;;;;;;;5.12;33.14;101746.75;4971112;28;20062;-73
2022/03/19 03:40:41;;;;;;;16.97;5.73;;;;;;;5.03;32.92;101745.41;4987560;28;20097;-73
2022/03/19 03:43:09;;;;;;;16.83;5.97;;;;;;;5.17;33.11;101760.56;4971311;28;20490;-72
2022/03/19 03:45:35;;;;;;;12.70;5.63;;;;;;;5.20;33.20;101758.66;4972041;28;20047;-73
2022/03/19 03:48:01;;;;;;;16.30;5.50;;;;;;;5.18;33.22;101767.56;4972404;28;20594;-74
2022/03/19 03:50:27;;;;;;;15.97;5.80;;;;;;;5.22;33.00;101777.00;4971522;28;20133;-74
2022/03/19 03:52:53;;;;;;;13.90;5.60;;;;;;;5.13;32.91;101745.84;4987826;28;20077;-73
2022/03/19 03:55:19;;;;;;;15.70;5.70;;;;;;;5.25;32.91;101768.97;4938992;28;20074;-73
2022/03/19 03:57:45;;;;;;;25.17;6.00;;;;;;;5.32;32.79;101767.72;4970909;28;20101;-73
2022/03/19 04:00:12;;;;;;;13.87;5.30;;;;;;;5.36;32.87;101768.44;4954992;28;20056;-73
2022/03/19 04:02:41;;;;;;;9.67;5.37;;;;;;;5.41;32.63;101766.47;4986341;28;20125;-73
2022/03/19 04:05:08;;;;;;;10.83;4.80;;;;;;;5.46;32.90;101773.19;4954747;28;20038;-74
2022/03/19 04:07:34;;;;;;;15.60;5.43;;;;;;;5.40;32.83;101783.22;4972088;28;20050;-74
2022/03/19 04:10:00;;;;;;;12.10;5.63;;;;;;;5.47;32.42;101781.97;4987162;28;20126;-73
2022/03/19 04:12:26;;;;;;;11.93;5.83;;;;;;;5.35;32.59;101754.41;4970861;28;20137;-75
2022/03/19 04:14:54;;;;;;;12.43;6.00;;;;;;;5.52;32.57;101782.59;4954923;28;20123;-75
2022/03/19 04:17:19;;;;;;;20.87;6.37;;;;;;;5.54;32.40;101786.88;4986545;28;20414;-74
2022/03/19 04:19:46;;;;;;;19.33;6.57;;;;;;;5.66;32.38;101780.16;4970461;28;20050;-73
2022/03/19 04:22:12;;;;;;;15.60;5.87;;;;;;;5.48;32.67;101763.44;4986585;28;20093;-73
2022/03/19 04:24:38;;;;;;;13.30;6.67;;;;;;;5.79;32.22;101797.06;4970318;28;20055;-74
2022/03/19 04:27:04;;;;;;;17.97;6.77;;;;;;;5.75;32.19;101784.97;4970504;28;20053;-75
2022/03/19 04:29:32;;;;;;;20.60;5.90;;;;;;;5.78;32.24;101793.56;4970390;28;20445;-71
2022/03/19 04:31:58;;;;;;;25.83;6.60;;;;;;;5.80;32.12;101780.31;4971762;28;20440;-73
2022/03/19 04:34:24;;;;;;;21.43;7.20;;;;;;;5.88;31.99;101794.00;4954336;28;20046;-73
2022/03/19 04:36:51;;;;;;;13.80;7.17;;;;;;;5.90;32.00;101794.81;4989766;28;20434;-73
2022/03/19 04:39:16;;;;;;;23.57;7.77;;;;;;;5.93;32.01;101792.88;5002870;28;20050;-72
2022/03/19 04:41:42;;;;;;;17.70;7.83;;;;;;;6.02;31.69;101804.72;4971671;28;20101;-74
2022/03/19 04:44:08;;;;;;;16.33;7.33;;;;;;;6.09;31.73;101806.16;4970914;28;20367;-74
2022/03/19 04:46:35;;;;;;;22.37;8.77;;;;;;;6.17;31.75;101804.81;5005371;28;20077;-73
2022/03/19 04:49:02;;;;;;;21.30;6.77;;;;;;;6.08;31.64;101776.28;4956521;28;20050;-72
2022/03/19 04:51:32;;;;;;;27.67;7.90;;;;;;;6.41;31.41;101806.19;4957007;28;20426;-73
2022/03/19 04:53:59;;;;;;;18.48;7.82;;;;;;;6.33;31.36;101808.41;4942750;28;20138;-74
2022/03/19 04:56:27;;;;;;;17.37;7.00;;;;;;;6.45;31.39;101807.75;4986418;28;20082;-71
2022/03/19 04:58:55;;;;;;;18.10;7.00;;;;;;;6.54;31.49;101809.94;4971025;28;20426;-72
2022/03/19 05:01:21;;;;;;;17.90;7.13;;;;;;;6.57;30.91;101822.97;4971637;28;20070;-70
2022/03/19 05:03:50;;;;;;;18.27;8.20;;;;;;;6.57;30.97;101816.81;4970122;28;20081;-71
2022/03/19 05:06:15;;;;;;;22.67;8.67;;;;;;;6.65;30.78;101826.06;4954214;28;20523;-71
2022/03/19 05:08:41;;;;;;;16.73;8.33;;;;;;;6.69;30.66;101826.75;4969736;28;20109;-70
2022/03/19 05:11:13;;;;;;;28.73;8.03;;;;;;;6.75;30.91;101819.34;4969613;28;20043;-71
2022/03/19 05:13:44;;;;;;;19.10;8.57;;;;;;;6.84;30.50;101821.50;4955579;28;20054;-71
2022/03/19 05:16:11;;;;;;;20.80;8.27;;;;;;;6.92;30.66;101828.19;4989655;28;20078;-71
2022/03/19 05:18:37;;;;;;;27.30;8.70;;;;;;;6.95;30.71;101834.13;4989741;28;20411;-71
2022/03/19 05:21:04;;;;;;;24.43;8.87;;;;;;;7.02;30.53;101830.25;4973313;28;20043;-71
2022/03/19 05:23:31;;;;;;;22.23;8.43;;;;;;;6.92;30.55;101812.34;4973633;28;20518;-71
2022/03/19 05:25:58;;;;;;;29.53;8.60;;;;;;;7.10;30.44;101843.06;4989505;28;20081;-72
2022/03/19 05:28:24;;;;;;;24.43;9.30;;;;;;;7.21;30.29;101849.44;5005779;28;20605;-72
2022/03/19 05:30:51;;;;;;;33.13;9.83;;;;;;;7.24;30.30;101836.09;4973334;28;20512;-72
2022/03/19 05:33:17;;;;;;;25.23;9.97;;;;;;;7.29;30.37;101839.31;4941209;28;20604;-72
2022/03/19 05:35:44;;;;;;;25.53;10.13;;;;;;;7.29;30.16;101834.03;4973359;28;20059;-72
2022/03/19 05:38:11;;;;;;;34.07;10.83;;;;;;;7.44;30.07;101850.84;4989343;28;20093;-72
2022/03/19 05:40:37;;;;;;;27.03;10.40;;;;;;;7.49;29.82;101843.53;4957454;28;20043;-71
2022/03/19 05:43:03;;;;;;;22.53;10.40;;;;;;;7.49;29.63;101835.59;4957489;28;20047;-71
2022/03/19 05:45:29;;;;;;;24.03;11.10;;;;;;;7.53;29.78;101832.69;4941955;28;20053;-72
2022/03/19 05:47:54;;;;;;;27.50;11.07;;;;;;;7.62;29.57;101828.66;4941308;28;20102;-73
2022/03/19 05:50:20;;;;;;;27.23;11.10;;;;;;;7.83;29.77;101840.69;4989569;28;20121;-73
2022/03/19 05:52:46;;;;;;;23.97;10.57;;;;;;;7.85;29.52;101839.66;4989534;28;20098;-73
2022/03/19 05:55:13;;;;;;;27.53;11.63;;;;;;;8.02;29.30;101850.16;4957228;28;20043;-72
2022/03/19 05:57:40;;;;;;;23.07;10.87;;;;;;;7.86;29.25;101801.69;4974443;28;20146;-73
2022/03/19 06:00:08;;;;;;;25.47;10.43;;;;;;;8.19;29.00;101841.22;4989115;28;20042;-73
2022/03/19 06:02:40;;;;;;;24.37;10.87;;;;;;;8.22;29.05;101847.22;4973242;28;20145;-73
2022/03/19 06:05:06;;;;;;;24.40;11.13;;;;;;;8.26;28.83;101846.09;4973276;28;20403;-75
2022/03/19 06:07:32;;;;;;;42.70;12.57;;;;;;;8.30;29.00;101847.59;4973506;28;20047;-74
2022/03/19 06:09:58;;;;;;;29.13;12.80;;;;;;;8.38;28.89;101841.84;4924919;28;20043;-73
2022/03/19 06:12:24;;;;;;;41.50;14.07;;;;;;;8.44;29.07;101844.19;4940761;28;20618;-74
2022/03/19 06:14:53;;;;;;;35.73;13.00;;;;;;;8.70;28.87;101847.91;4972098;28;20057;-74
2022/03/19 06:17:20;;;;;;;40.57;13.03;;;;;;;8.75;28.81;101853.78;4988143;28;20054;-75
2022/03/19 06:19:48;;;;;;;31.10;13.43;;;;;;;8.76;28.65;101853.69;4956369;28;20047;-74
2022/03/19 06:22:14;;;;;;;42.53;14.97;;;;;;;8.84;28.78;101863.81;4955996;28;20043;-76
2022/03/19 06:24:40;;;;;;;39.87;15.53;;;;;;;8.99;28.89;101853.16;5003290;28;20074;-74
2022/03/19 06:27:06;;;;;;;40.57;14.97;;;;;;;9.06;28.54;101849.16;4971998;28;20051;-76
2022/03/19 06:29:32;;;;;;;54.77;19.33;;;;;;;9.12;28.59;101854.06;4956645;28;20055;-75
2022/03/19 06:31:58;;;;;;;43.20;16.10;;;;;;;9.25;28.58;101854.16;4956018;28;20133;-72
2022/03/19 06:34:24;;;;;;;48.13;16.37;;;;;;;9.33;28.52;101855.38;4939947;28;20134;-75
2022/03/19 06:39:44;;;;;;;52.63;15.23;;;;;;;9.47;28.04;101860.66;4965988;28;20043;-76
2022/03/19 06:42:10;;;;;;;51.43;18.63;;;;;;;9.60;28.19;101851.00;4968661;28;20074;-74
2022/03/19 06:44:46;;;;;;;54.17;20.90;;;;;;;9.89;28.06;101857.94;4953079;29;20397;-75
2022/03/19 06:47:12;;;;;;;66.33;22.47;;;;;;;9.87;28.27;101859.81;4969099;28;20044;-75
2022/03/19 06:49:39;;;;;;;67.37;20.57;;;;;;;9.94;28.05;101849.66;4969050;28;20190;-74
2022/03/19 06:52:08;;;;;;;66.23;22.53;;;;;;;10.12;28.20;101862.63;4952955;28;20133;-73
2022/03/19 06:54:33;;;;;;;62.75;20.38;;;;;;;10.24;28.10;101856.47;4936986;29;20103;-74
2022/03/19 06:57:00;;;;;;;58.93;19.30;;;;;;;10.31;27.83;101841.00;4952668;28;20474;-75
2022/03/19 06:59:25;;;;;;;51.63;18.80;;;;;;;10.64;27.50;101867.09;4968695;28;20154;-74
2022/03/19 07:01:51;;;;;;;50.50;17.02;;;;;;;10.79;26.78;101853.63;4952573;28;20047;-75
2022/03/19 07:04:18;;;;;;;45.15;14.88;;;;;;;11.02;26.06;101854.66;4952531;28;20086;-75
2022/03/19 07:06:44;;;;;;;58.13;15.90;;;;;;;11.28;25.79;101843.06;4968457;28;20074;-75
2022/03/19 07:09:10;;;;;;;43.70;14.02;;;;;;;11.46;25.31;101844.38;4952521;28;20562;-75
2022/03/19 07:11:37;;;;;;;46.17;13.63;;;;;;;11.69;24.99;101852.44;4953142;28;20102;-79
2022/03/19 07:14:05;;;;;;;45.42;15.25;;;;;;;11.95;24.65;101855.03;4936448;29;20606;-76
2022/03/19 07:16:30;;;;;;;47.95;14.25;;;;;;;12.11;24.17;101861.78;4968796;28;20050;-77
2022/03/19 07:18:56;;;;;;;50.25;13.40;;;;;;;12.37;23.82;101850.00;4952845;28;20046;-77
2022/03/19 07:21:22;;;;;;;55.67;12.88;;;;;;;12.64;23.43;101858.56;4953212;28;20064;-73
2022/03/19 07:23:49;;;;;;;33.10;11.25;;;;;;;12.98;23.30;101849.66;4952309;28;20047;-79
2022/03/19 07:26:15;;;;;;;41.13;12.60;;;;;;;13.34;22.67;101856.63;4968388;28;20085;-79
2022/03/19 07:28:41;;;;;;;32.75;12.23;;;;;;;13.89;21.98;101850.34;4952438;28;20518;-77
2022/03/19 07:31:07;;;;;;;43.10;14.63;;;;;;;15.09;20.95;101856.06;4920948;29;20141;-76
2022/03/19 07:33:36;;;;;;;38.92;13.88;;;;;;;17.98;18.09;101855.63;4968182;28;20593;-78
2022/03/19 07:36:06;;;;;;;52.67;13.30;;;;;;;21.42;15.01;101847.19;4953510;28;20144;-79
2022/03/19 07:38:32;;;;;;;46.65;13.18;;;;;;;24.66;12.04;101865.34;4990804;28;20133;-79
2022/03/19 07:43:42;;;;;;;30.17;7.47;;;;;;;29.66;7.90;101869.59;4977080;28;20097;-73
2022/03/19 07:46:10;;;;;;;19.92;5.25;;;;;;;31.43;6.62;101864.94;4974367;28;20077;-74
2022/03/19 07:48:36;;;;;;;13.00;5.03;;;;;;;32.84;5.54;101860.28;4942308;28;20050;-78
2022/03/19 07:51:02;;;;;;;11.82;4.65;;;;;;;33.97;5.00;101853.09;4974145;28;20045;-72
2022/03/19 07:53:28;;;;;;;11.60;5.35;;;;;;;35.03;4.09;101847.50;4958112;28;20038;-81
2022/03/19 07:55:54;;;;;;;12.15;5.63;;;;;;;35.69;3.95;101846.75;4973843;28;20042;-76
2022/03/19 07:58:21;;;;;;;10.70;4.60;;;;;;;36.66;3.25;101843.13;4990356;28;20506;-76
2022/03/19 08:00:46;;;;;;;13.20;4.65;;;;;;;37.29;3.08;101839.72;4958405;28;20049;-77
2022/03/19 08:03:12;;;;;;;13.15;4.22;;;;;;;38.00;2.48;101838.31;4957949;28;20046;-78
2022/03/19 08:05:41;;;;;;;14.95;4.53;;;;;;;38.54;2.12;101832.66;4958050;28;20046;-77
2022/03/19 08:08:07;;;;;;;9.82;4.57;;;;;;;38.95;2.35;101820.06;4990651;28;20050;-80
2022/03/19 08:10:34;;;;;;;10.05;4.20;;;;;;;39.49;1.76;101828.94;4990082;28;20045;-76
2022/03/19 08:13:05;;;;;;;14.10;4.57;;;;;;;40.19;1.67;101832.72;4973928;28;20052;-73
2022/03/19 08:15:31;;;;;;;15.82;5.10;;;;;;;40.56;1.59;101837.41;4941362;28;20097;-78
2022/03/19 08:17:58;;;;;;;15.75;4.88;;;;;;;41.00;1.21;101841.38;4957598;28;20490;-78
2022/03/19 08:20:24;;;;;;;17.20;4.60;;;;;;;41.24;1.13;101836.44;4973781;28;20057;-75
2022/03/19 08:22:49;;;;;;;12.73;4.30;;;;;;;41.15;1.18;101845.88;4973934;28;20050;-74
2022/03/19 08:25:15;;;;;;;14.38;4.50;;;;;;;41.39;1.08;101840.91;4990061;28;20481;-76
2022/03/19 08:27:41;;;;;;;10.13;4.03;;;;;;;41.45;1.24;101839.66;4986038;28;20057;-71
2022/03/19 08:30:09;;;;;;;14.93;3.85;;;;;;;41.71;0.85;101847.22;5004500;28;20461;-77
2022/03/19 08:32:39;;;;;;;11.73;4.50;;;;;;;42.01;0.74;101842.91;4964796;28;20041;-73
2022/03/19 08:35:07;;;;;;;13.93;3.85;;;;;;;42.15;0.64;101838.13;5002576;28;20112;-71
2022/03/19 08:37:33;;;;;;;17.67;4.35;;;;;;;42.46;0.35;101830.66;4982383;28;20057;-72
2022/03/19 08:40:17;;;;;;;16.42;4.90;;;;;;;42.59;0.34;101828.94;4992779;28;20045;-74
2022/03/19 08:42:46;;;;;;;12.70;4.13;;;;;;;42.86;0.36;101826.84;5009617;28;20099;-73
2022/03/19 08:45:11;;;;;;;11.35;3.50;;;;;;;43.02;0.18;101835.63;5009222;28;20058;-72
2022/03/19 08:47:37;;;;;;;13.90;4.13;;;;;;;43.30;0.00;101828.72;4976795;28;20056;-73
2022/03/19 08:50:04;;;;;;;16.15;4.40;;;;;;;43.41;0.04;101830.03;4964400;28;20045;-75
2022/03/19 08:52:32;;;;;;;9.27;4.05;;;;;;;43.56;0.00;101832.44;5012910;28;20045;-74
2022/03/19 08:55:00;;;;;;;11.98;4.55;;;;;;;44.08;0.00;101833.31;4997166;28;20175;-75
2022/03/19 08:57:29;;;;;;;12.73;4.38;;;;;;;44.06;0.00;101830.03;4997850;28;20046;-75
2022/03/19 08:59:55;;;;;;;23.55;4.53;;;;;;;43.86;0.05;101839.88;4980644;28;20052;-73
2022/03/19 09:02:21;;;;;;;18.00;4.70;;;;;;;43.83;0.00;101836.91;4996883;28;20065;-73
2022/03/19 09:04:47;;;;;;;12.25;4.50;;;;;;;43.47;0.18;101837.16;4980267;28;20045;-73
2022/03/19 09:07:14;;;;;;;12.48;5.03;;;;;;;43.58;0.19;101838.50;4997017;28;20042;-71
2022/03/19 09:09:41;;;;;;;17.63;4.90;;;;;;;43.62;0.05;101838.69;5013492;28;20493;-76
2022/03/19 09:12:08;;;;;;;17.33;4.78;;;;;;;43.62;0.03;101844.28;4975200;28;20046;-73
2022/03/19 09:14:34;;;;;;;13.88;4.50;;;;;;;43.63;0.27;101848.72;4997831;28;20065;-80
2022/03/19 09:17:00;;;;;;;21.02;4.85;;;;;;;43.37;0.00;101840.25;4945005;28;20074;-73
2022/03/19 09:19:27;;;;;;;15.93;5.40;;;;;;;43.49;0.19;101840.47;4976791;28;20054;-72
2022/03/19 09:21:54;;;;;;;14.20;5.35;;;;;;;43.71;0.00;101834.75;4993312;28;20049;-72
2022/03/19 09:24:20;;;;;;;15.38;5.07;;;;;;;43.62;0.00;101835.88;4993701;28;20046;-72
2022/03/19 09:26:46;;;;;;;20.15;4.65;;;;;;;43.62;0.00;101831.13;4999856;28;20088;-72
2022/03/19 09:29:15;;;;;;;16.80;6.03;;;;;;;43.61;0.00;101829.47;4995612;28;20131;-76
2022/03/19 09:31:41;;;;;;;19.42;6.10;;;;;;;43.58;0.00;101829.31;4978950;28;20509;-73
2022/03/19 09:34:07;;;;;;;18.15;5.28;;;;;;;43.69;0.00;101828.66;5010283;28;20450;-73
2022/03/19 09:36:33;;;;;;;18.90;4.97;;;;;;;43.17;0.00;101827.66;5011922;28;20063;-74
2022/03/19 09:39:01;;;;;;;14.25;4.63;;;;;;;43.22;0.00;101823.91;4979935;28;20085;-71
2022/03/19 09:41:26;;;;;;;17.90;5.07;;;;;;;42.91;0.00;101834.25;4980230;28;20041;-71
2022/03/19 09:43:59;;;;;;;17.38;4.63;;;;;;;42.91;0.00;101839.84;4996220;28;20061;-79
2022/03/19 09:46:25;;;;;;;17.30;6.53;;;;;;;43.23;0.00;101831.13;4996276;28;20050;-72
2022/03/19 09:48:53;;;;;;;18.95;5.72;;;;;;;43.49;0.00;101834.06;4995855;28;20042;-71
2022/03/19 09:51:19;;;;;;;17.77;6.15;;;;;;;44.06;0.00;101844.88;5012119;28;20045;-70
2022/03/19 09:53:46;;;;;;;22.83;5.72;;;;;;;44.54;0.00;101839.91;5012407;28;20057;-70
2022/03/19 09:56:12;;;;;;;20.13;5.00;;;;;;;45.05;0.00;101840.97;4996143;28;20099;-71
2022/03/19 09:58:40;;;;;;;15.48;4.82;;;;;;;45.45;0.00;101845.09;5011836;28;20096;-70
2022/03/19 10:01:06;;;;;;;18.88;5.38;;;;;;;45.68;0.00;101836.03;4995360;28;20053;-70
2022/03/19 10:03:33;;;;;;;15.60;5.95;;;;;;;45.73;0.00;101832.22;4972625;28;20096;-70
2022/03/19 10:08:55;;;;;;;21.08;6.03;;;;;;;44.45;0.00;101819.50;5009309;28;20073;-72
2022/03/19 10:11:37;;;;;;;22.60;5.20;;;;;;;44.20;0.01;101811.91;5011259;28;20061;-71
2022/03/19 10:14:06;;;;;;;22.00;5.47;;;;;;;44.06;0.00;101825.25;4994346;28;20038;-73
2022/03/19 10:16:35;;;;;;;21.48;6.32;;;;;;;43.55;0.00;101802.75;5011178;28;20038;-73
2022/03/19 10:19:07;;;;;;;21.10;5.30;;;;;;;43.65;0.00;101826.84;5004201;28;20101;-72
2022/03/19 10:21:38;;;;;;;15.85;5.07;;;;;;;44.35;0.00;101838.59;4968171;28;20042;-72
2022/03/19 10:24:07;;;;;;;25.40;6.00;;;;;;;44.87;0.00;101843.00;4995823;28;20545;-73
2022/03/19 10:26:37;;;;;;;21.48;5.32;;;;;;;44.91;0.00;101837.53;4975179;28;20127;-73
2022/03/19 10:29:09;;;;;;;17.35;5.53;;;;;;;44.30;0.00;101824.78;4959718;28;20073;-74
2022/03/19 10:31:38;;;;;;;17.88;5.20;;;;;;;43.94;0.00;101832.66;4959243;28;20050;-74
2022/03/19 10:34:06;;;;;;;19.67;5.35;;;;;;;43.65;0.00;101843.63;4984892;28;20058;-74
2022/03/19 10:36:37;;;;;;;18.42;5.10;;;;;;;43.69;0.00;101837.06;4987717;28;20058;-74
2022/03/19 10:39:13;;;;;;;10.82;5.03;;;;;;;43.33;0.00;101847.66;4971536;28;20103;-74
2022/03/19 10:41:39;;;;;;;12.15;5.13;;;;;;;43.11;0.00;101840.16;4987661;28;20078;-69
2022/03/19 10:44:15;;;;;;;20.73;5.47;;;;;;;43.13;0.00;101837.84;4987371;28;20141;-69
2022/03/19 10:46:55;;;;;;;9.77;4.90;;;;;;;43.24;0.00;101836.41;4971640;28;20054;-69
2022/03/19 10:49:24;;;;;;;16.02;5.03;;;;;;;43.00;0.00;101821.13;4973227;28;20170;-69
2022/03/19 10:51:55;;;;;;;16.60;5.10;;;;;;;42.85;0.00;101818.78;4955649;28;20129;-69
2022/03/19 10:54:24;;;;;;;17.45;5.10;;;;;;;42.73;0.00;101824.97;4955382;28;20043;-69
2022/03/19 10:56:51;;;;;;;15.68;4.70;;;;;;;42.49;0.05;101818.84;4986889;28;20054;-70
2022/03/19 10:59:30;;;;;;;15.40;5.05;;;;;;;42.31;0.00;101830.22;4986895;28;20133;-69
2022/03/19 11:01:57;;;;;;;11.68;4.88;;;;;;;42.07;0.16;101827.72;4954989;28;20047;-68
2022/03/19 11:04:23;;;;;;;9.35;4.55;;;;;;;41.89;0.00;101811.09;4986848;28;20081;-69
2022/03/19 11:06:51;;;;;;;13.70;4.90;;;;;;;41.74;0.26;101826.22;4974032;28;20082;-68
2022/03/19 11:09:19;;;;;;;17.35;5.13;;;;;;;41.90;0.30;101824.75;4987055;28;20076;-69
2022/03/19 11:12:02;;;;;;;13.13;4.28;;;;;;;42.13;0.10;101809.69;4989644;28;20054;-68
2022/03/19 11:14:29;;;;;;;9.60;4.35;;;;;;;42.12;0.04;101810.81;5000972;28;20076;-69
2022/03/19 11:19:48;;;;;;;17.00;4.55;;;;;;;42.28;0.00;101809.31;5001734;28;20089;-67
2022/03/19 11:22:14;;;;;;;8.45;4.10;;;;;;;42.19;0.00;101814.00;4971685;28;20406;-68
2022/03/19 11:24:52;;;;;;;14.75;4.40;;;;;;;41.34;0.44;101805.56;4971492;28;20047;-68
2022/03/19 11:27:19;;;;;;;13.82;4.68;;;;;;;40.36;0.65;101802.38;4955366;28;20039;-68
2022/03/19 11:29:45;;;;;;;13.90;5.80;;;;;;;39.90;1.07;101802.22;4971949;28;20043;-69
2022/03/19 11:32:23;;;;;;;17.40;4.50;;;;;;;40.08;0.47;101803.38;4987312;28;20137;-69
2022/03/19 11:34:56;;;;;;;14.05;4.32;;;;;;;39.84;0.90;101800.66;4971550;28;20051;-68
2022/03/19 11:37:23;;;;;;;13.07;4.80;;;;;;;39.48;0.77;101793.91;4968917;28;20070;-68